createdAt,value
2023-10-30T00:00:41.566Z,12.76
2023-10-30T00:03:31.124Z,12.70
2023-10-30T00:05:59.246Z,12.70
2023-10-30T00:08:27.743Z,12.70
2023-10-30T00:10:56.180Z,12.70
2023-10-30T00:13:24.229Z,12.70
2023-10-30T00:15:52.204Z,12.70
2023-10-30T00:18:20.276Z,12.70
2023-10-30T00:20:48.509Z,12.70
2023-10-30T00:23:16.589Z,12.70
2023-10-30T00:25:44.607Z,12.66
2023-10-30T00:28:12.725Z,12.66
2023-10-30T00:30:40.694Z,12.68
2023-10-30T00:33:08.865Z,12.70
2023-10-30T00:35:37.698Z,12.70
2023-10-30T00:38:06.292Z,12.70
2023-10-30T00:40:34.375Z,12.70
2023-10-30T00:43:02.302Z,12.70
2023-10-30T00:45:30.307Z,12.70
2023-10-30T00:47:59.367Z,12.70
2023-10-30T00:50:27.995Z,12.70
2023-10-30T00:52:55.969Z,12.70
2023-10-30T00:55:24.148Z,12.70
2023-10-30T00:57:52.201Z,12.70
2023-10-30T01:00:20.381Z,12.68
2023-10-30T01:02:48.797Z,12.60
2023-10-30T01:05:17.174Z,12.60
2023-10-30T01:07:45.498Z,12.60
2023-10-30T01:10:14.214Z,12.60
2023-10-30T01:12:43.703Z,12.60
2023-10-30T01:15:11.927Z,12.58
2023-10-30T01:17:40.721Z,12.60
2023-10-30T01:20:10.070Z,12.52
2023-10-30T01:22:38.109Z,12.50
2023-10-30T01:25:06.429Z,12.52
2023-10-30T01:27:34.548Z,12.54
2023-10-30T01:30:02.639Z,12.60
2023-10-30T01:32:31.430Z,12.60
2023-10-30T01:35:00.217Z,12.60
2023-10-30T01:37:28.309Z,12.52
2023-10-30T01:39:56.350Z,12.52
2023-10-30T01:42:24.299Z,12.54
2023-10-30T01:44:59.715Z,12.50
2023-10-30T01:47:29.091Z,12.58
2023-10-30T01:49:58.919Z,12.60
2023-10-30T01:52:29.602Z,12.60
2023-10-30T01:54:58.185Z,12.60
2023-10-30T01:57:28.629Z,12.60
2023-10-30T01:59:58.241Z,12.60
2023-10-30T02:02:29.913Z,12.60
2023-10-30T02:04:58.072Z,12.60
2023-10-30T02:07:26.184Z,12.68
2023-10-30T02:09:55.446Z,12.64
2023-10-30T02:12:23.516Z,12.70
2023-10-30T02:14:52.410Z,12.70
2023-10-30T02:17:20.599Z,12.70
2023-10-30T02:19:49.075Z,12.70
2023-10-30T02:22:17.315Z,12.60
2023-10-30T02:24:45.580Z,12.70
2023-10-30T02:27:13.600Z,12.70
2023-10-30T02:29:42.122Z,12.70
2023-10-30T02:32:10.294Z,12.70
2023-10-30T02:34:38.456Z,12.70
2023-10-30T02:37:06.629Z,12.70
2023-10-30T02:39:36.080Z,12.62
2023-10-30T02:42:05.839Z,12.60
2023-10-30T02:44:34.510Z,12.60
2023-10-30T02:47:02.649Z,12.60
2023-10-30T02:49:30.855Z,12.60
2023-10-30T02:51:58.897Z,12.60
2023-10-30T02:54:26.879Z,12.60
2023-10-30T02:56:55.265Z,12.60
2023-10-30T02:59:23.639Z,12.54
2023-10-30T03:01:51.697Z,12.50
2023-10-30T03:04:19.931Z,12.50
2023-10-30T03:06:49.049Z,12.50
2023-10-30T03:09:17.519Z,12.50
2023-10-30T03:11:45.555Z,12.50
2023-10-30T03:14:13.573Z,12.54
2023-10-30T03:16:41.592Z,12.54
2023-10-30T03:19:10.412Z,12.56
2023-10-30T03:21:38.730Z,12.50
2023-10-30T03:24:08.197Z,12.50
2023-10-30T03:26:36.733Z,12.50
2023-10-30T03:29:04.776Z,12.50
2023-10-30T03:31:34.221Z,12.50
2023-10-30T03:34:02.553Z,12.50
2023-10-30T03:36:30.621Z,12.42
2023-10-30T03:38:59.081Z,12.40
2023-10-30T03:41:27.576Z,12.40
2023-10-30T03:43:55.726Z,12.40
2023-10-30T03:46:23.842Z,12.32
2023-10-30T03:48:51.932Z,12.32
2023-10-30T03:51:19.931Z,12.30
2023-10-30T03:53:48.493Z,12.30
2023-10-30T03:56:16.423Z,12.30
2023-10-30T03:58:44.358Z,12.30
2023-10-30T04:01:12.334Z,12.30
2023-10-30T04:03:40.486Z,12.30
2023-10-30T04:06:08.588Z,12.30
2023-10-30T04:08:36.565Z,12.30
2023-10-30T04:11:16.995Z,12.30
2023-10-30T04:13:45.998Z,12.24
2023-10-30T04:16:17.950Z,12.20
2023-10-30T04:18:46.060Z,12.22
2023-10-30T04:21:14.157Z,12.20
2023-10-30T04:23:43.915Z,12.20
2023-10-30T04:26:12.101Z,12.22
2023-10-30T04:28:40.387Z,12.30
2023-10-30T04:31:10.204Z,12.30
2023-10-30T04:33:38.564Z,12.30
2023-10-30T04:36:07.667Z,12.32
2023-10-30T04:38:37.658Z,12.40
2023-10-30T04:41:06.209Z,12.40
2023-10-30T04:43:35.547Z,12.40
2023-10-30T04:46:03.777Z,12.40
2023-10-30T04:48:32.103Z,12.40
2023-10-30T04:51:01.825Z,12.40
2023-10-30T04:53:33.157Z,12.40
2023-10-30T04:56:03.542Z,12.40
2023-10-30T04:58:31.584Z,12.40
2023-10-30T05:01:00.257Z,12.36
2023-10-30T05:03:28.648Z,12.30
2023-10-30T05:05:56.797Z,12.30
2023-10-30T05:08:25.925Z,12.30
2023-10-30T05:10:53.947Z,12.20
2023-10-30T05:13:21.879Z,12.20
2023-10-30T05:15:50.237Z,12.10
2023-10-30T05:18:23.488Z,12.10
2023-10-30T05:20:52.484Z,12.00
2023-10-30T05:23:20.387Z,12.00
2023-10-30T05:25:48.440Z,11.92
2023-10-30T05:28:16.585Z,11.90
2023-10-30T05:30:44.891Z,11.82
2023-10-30T05:33:13.244Z,11.80
2023-10-30T05:35:41.245Z,11.76
2023-10-30T05:38:09.352Z,11.70
2023-10-30T05:40:37.275Z,11.70
2023-10-30T05:43:05.330Z,11.70
2023-10-30T05:45:33.334Z,11.70
2023-10-30T05:48:01.404Z,11.70
2023-10-30T05:50:29.351Z,11.70
2023-10-30T05:52:57.463Z,11.70
2023-10-30T05:55:25.896Z,11.68
2023-10-30T05:57:53.975Z,11.70
2023-10-30T06:00:24.812Z,11.70
2023-10-30T06:02:53.497Z,11.70
2023-10-30T06:05:22.850Z,11.70
2023-10-30T06:07:50.868Z,11.74
2023-10-30T06:10:20.918Z,11.80
2023-10-30T06:12:49.175Z,11.80
2023-10-30T06:15:17.758Z,11.80
2023-10-30T06:17:46.115Z,11.80
2023-10-30T06:20:14.141Z,11.86
2023-10-30T06:22:42.263Z,11.88
2023-10-30T06:25:10.905Z,11.88
2023-10-30T06:27:41.616Z,11.88
2023-10-30T06:30:13.870Z,11.80
2023-10-30T06:32:42.468Z,11.80
2023-10-30T06:35:11.165Z,11.80
2023-10-30T06:37:39.335Z,11.80
2023-10-30T06:40:11.022Z,11.72
2023-10-30T06:42:39.262Z,11.70
2023-10-30T06:45:08.258Z,11.70
2023-10-30T06:47:36.379Z,11.70
2023-10-30T06:50:05.033Z,11.70
2023-10-30T06:52:33.001Z,11.76
2023-10-30T06:55:01.479Z,11.80
2023-10-30T06:57:29.980Z,11.84
2023-10-30T06:59:58.828Z,11.90
2023-10-30T07:02:26.911Z,11.92
2023-10-30T07:04:55.258Z,12.00
2023-10-30T07:07:23.333Z,12.10
2023-10-30T07:09:51.750Z,12.10
2023-10-30T07:12:19.996Z,12.20
2023-10-30T07:14:48.249Z,12.20
2023-10-30T07:17:16.592Z,12.30
2023-10-30T07:19:44.961Z,12.48
2023-10-30T07:22:13.547Z,12.70
2023-10-30T07:24:43.997Z,13.10
2023-10-30T07:27:12.127Z,13.50
2023-10-30T07:29:40.515Z,13.98
2023-10-30T07:32:08.884Z,14.42
2023-10-30T07:34:36.854Z,14.90
2023-10-30T07:37:05.167Z,15.10
2023-10-30T07:39:33.625Z,15.20
2023-10-30T07:42:02.710Z,15.70
2023-10-30T07:44:30.819Z,16.10
2023-10-30T07:46:58.884Z,16.48
2023-10-30T07:49:26.884Z,16.30
2023-10-30T07:51:54.861Z,16.24
2023-10-30T07:54:23.676Z,16.60
2023-10-30T07:56:51.647Z,16.80
2023-10-30T07:59:20.019Z,17.00
2023-10-30T08:01:48.651Z,17.30
2023-10-30T08:04:17.164Z,17.30
2023-10-30T08:06:45.456Z,17.40
2023-10-30T08:09:13.446Z,17.40
2023-10-30T08:11:41.462Z,17.30
2023-10-30T08:14:10.119Z,17.20
2023-10-30T08:16:38.413Z,16.90
2023-10-30T08:19:06.466Z,16.60
2023-10-30T08:21:34.581Z,16.30
2023-10-30T08:24:02.784Z,16.10
2023-10-30T08:26:30.889Z,15.90
2023-10-30T08:28:59.243Z,15.68
2023-10-30T08:31:28.014Z,15.50
2023-10-30T08:33:58.561Z,15.40
2023-10-30T08:36:26.785Z,15.20
2023-10-30T08:38:55.792Z,15.20
2023-10-30T08:41:25.287Z,15.10
2023-10-30T08:43:54.186Z,15.06
2023-10-30T08:46:22.503Z,15.10
2023-10-30T08:48:50.595Z,15.10
2023-10-30T08:51:18.680Z,15.10
2023-10-30T08:53:47.445Z,15.10
2023-10-30T08:56:15.926Z,15.30
2023-10-30T08:58:44.625Z,15.70
2023-10-30T09:01:12.605Z,16.22
2023-10-30T09:03:45.376Z,17.04
2023-10-30T09:06:14.051Z,17.76
2023-10-30T09:08:42.845Z,18.20
2023-10-30T09:11:10.837Z,18.24
2023-10-30T09:13:38.764Z,17.90
2023-10-30T09:16:07.563Z,17.60
2023-10-30T09:18:36.422Z,17.50
2023-10-30T09:21:05.672Z,17.30
2023-10-30T09:23:33.635Z,17.10
2023-10-30T09:26:01.652Z,16.90
2023-10-30T09:28:29.572Z,17.00
2023-10-30T09:30:57.674Z,17.60
2023-10-30T09:33:25.725Z,18.10
2023-10-30T09:35:53.895Z,18.68
2023-10-30T09:38:21.821Z,18.90
2023-10-30T09:41:08.341Z,19.00
2023-10-30T09:43:39.012Z,18.62
2023-10-30T09:46:08.433Z,18.50
2023-10-30T09:48:37.844Z,18.70
2023-10-30T09:51:09.190Z,19.00
2023-10-30T09:53:39.002Z,19.30
2023-10-30T09:56:10.805Z,19.64
2023-10-30T09:58:39.340Z,19.80
2023-10-30T10:01:07.749Z,19.78
2023-10-30T10:03:36.585Z,20.00
2023-10-30T10:06:06.216Z,19.90
2023-10-30T10:08:34.758Z,19.78
2023-10-30T10:11:04.220Z,19.80
2023-10-30T10:13:34.977Z,19.80
2023-10-30T10:16:03.266Z,19.50
2023-10-30T10:18:36.426Z,19.50
2023-10-30T10:21:09.380Z,19.70
2023-10-30T10:23:39.480Z,19.90
2023-10-30T10:26:16.837Z,19.80
2023-10-30T10:28:50.699Z,19.60
2023-10-30T10:31:18.755Z,19.70
2023-10-30T10:33:49.654Z,19.80
2023-10-30T10:36:17.849Z,19.80
2023-10-30T10:39:01.010Z,19.80
2023-10-30T10:41:30.021Z,20.00
2023-10-30T10:44:00.586Z,20.16
2023-10-30T10:46:28.737Z,20.40
2023-10-30T10:48:57.195Z,20.28
2023-10-30T10:51:40.100Z,20.10
2023-10-30T10:54:18.424Z,19.90
2023-10-30T10:56:53.236Z,19.48
2023-10-30T10:59:29.376Z,19.10
2023-10-30T11:02:00.799Z,18.82
2023-10-30T11:04:30.899Z,18.60
2023-10-30T11:07:13.903Z,18.38
2023-10-30T11:09:52.728Z,18.20
2023-10-30T11:12:58.977Z,18.04
2023-10-30T11:15:40.974Z,17.96
2023-10-30T11:18:23.208Z,17.80
2023-10-30T11:21:17.534Z,17.70
2023-10-30T11:23:45.624Z,17.50
2023-10-30T11:26:39.242Z,17.40
2023-10-30T11:29:23.367Z,17.34
2023-10-30T11:32:02.290Z,17.40
2023-10-30T11:34:39.448Z,17.44
2023-10-30T11:37:12.635Z,17.50
2023-10-30T11:39:43.659Z,17.50
2023-10-30T11:42:24.046Z,17.60
2023-10-30T11:44:53.883Z,17.60
2023-10-30T11:47:25.405Z,17.60
2023-10-30T11:49:59.311Z,17.60
2023-10-30T11:52:28.405Z,17.50
2023-10-30T11:54:56.419Z,17.50
2023-10-30T11:57:26.673Z,17.40
2023-10-30T11:59:54.946Z,17.30
2023-10-30T12:02:22.999Z,17.20
2023-10-30T12:04:51.397Z,17.10
2023-10-30T12:07:19.743Z,17.00
2023-10-30T12:09:47.688Z,16.90
2023-10-30T12:12:15.887Z,16.80
2023-10-30T12:14:43.856Z,16.80
2023-10-30T12:17:14.202Z,16.80
2023-10-30T12:19:44.540Z,16.80
2023-10-30T12:22:12.708Z,16.80
2023-10-30T12:24:41.255Z,16.80
2023-10-30T12:27:11.272Z,16.90
2023-10-30T12:29:39.303Z,16.90
2023-10-30T12:32:08.773Z,16.90
2023-10-30T12:34:38.000Z,16.90
2023-10-30T12:37:25.814Z,17.00
2023-10-30T12:40:11.614Z,17.14
2023-10-30T12:42:45.341Z,17.30
2023-10-30T12:45:22.340Z,17.30
2023-10-30T12:47:51.994Z,17.22
2023-10-30T12:50:20.335Z,17.30
2023-10-30T12:52:48.459Z,17.30
2023-10-30T12:55:16.662Z,17.38
2023-10-30T12:57:44.946Z,17.40
2023-10-30T13:00:14.203Z,17.48
2023-10-30T13:02:42.607Z,17.50
2023-10-30T13:05:13.323Z,17.46
2023-10-30T13:07:43.383Z,17.38
2023-10-30T13:10:11.375Z,17.30
2023-10-30T13:12:39.487Z,17.20
2023-10-30T13:15:08.594Z,17.20
2023-10-30T13:17:37.184Z,17.16
2023-10-30T13:20:07.651Z,17.10
2023-10-30T13:22:35.962Z,17.00
2023-10-30T13:25:06.328Z,16.90
2023-10-30T13:27:34.633Z,16.90
2023-10-30T13:30:05.376Z,16.80
2023-10-30T13:32:33.955Z,16.80
2023-10-30T13:35:05.001Z,16.80
2023-10-30T13:37:35.531Z,16.82
2023-10-30T13:40:04.497Z,16.88
2023-10-30T13:42:32.580Z,16.82
2023-10-30T13:45:00.646Z,16.80
2023-10-30T13:47:28.969Z,16.90
2023-10-30T13:49:57.064Z,16.90
2023-10-30T13:52:25.907Z,16.90
2023-10-30T13:54:53.998Z,16.90
2023-10-30T13:57:22.908Z,16.90
2023-10-30T13:59:51.069Z,16.90
2023-10-30T14:02:19.324Z,16.90
2023-10-30T14:04:50.416Z,16.90
2023-10-30T14:07:20.994Z,16.90
2023-10-30T14:09:49.871Z,16.90
2023-10-30T14:12:19.860Z,16.90
2023-10-30T14:14:49.912Z,16.90
2023-10-30T14:17:17.938Z,16.90
2023-10-30T14:19:46.075Z,16.80
2023-10-30T14:22:14.232Z,16.90
2023-10-30T14:24:42.282Z,16.80
2023-10-30T14:27:10.533Z,16.80
2023-10-30T14:29:39.077Z,16.70
2023-10-30T14:32:08.105Z,16.70
2023-10-30T14:34:36.898Z,16.70
2023-10-30T14:37:08.523Z,16.70
2023-10-30T14:39:37.523Z,16.80
2023-10-30T14:42:06.115Z,16.70
2023-10-30T14:44:34.207Z,16.70
2023-10-30T14:47:02.215Z,16.60
2023-10-30T14:49:30.235Z,16.50
2023-10-30T14:51:58.521Z,16.42
2023-10-30T14:54:28.119Z,16.40
2023-10-30T14:56:56.359Z,16.40
2023-10-30T14:59:24.429Z,16.40
2023-10-30T15:01:54.199Z,16.30
2023-10-30T15:04:22.425Z,16.28
2023-10-30T15:06:50.585Z,16.20
2023-10-30T15:09:18.796Z,16.20
2023-10-30T15:11:46.936Z,16.10
2023-10-30T15:14:15.978Z,16.04
2023-10-30T15:16:44.038Z,16.00
2023-10-30T15:19:12.140Z,16.00
2023-10-30T15:21:40.861Z,15.90
2023-10-30T15:24:09.458Z,15.84
2023-10-30T15:26:38.538Z,15.80
2023-10-30T15:29:06.708Z,15.70
2023-10-30T15:31:34.821Z,15.60
2023-10-30T15:34:02.951Z,15.50
2023-10-30T15:36:31.111Z,15.40
2023-10-30T15:38:59.156Z,15.30
2023-10-30T15:41:27.189Z,15.20
2023-10-30T15:43:55.442Z,15.18
2023-10-30T15:46:23.539Z,15.10
2023-10-30T15:48:51.806Z,15.10
2023-10-30T15:51:19.900Z,15.00
2023-10-30T15:58:55.109Z,14.80
2023-10-30T16:01:23.165Z,14.80
2023-10-30T16:03:52.298Z,14.70
2023-10-30T16:06:20.745Z,14.68
2023-10-30T16:08:50.993Z,14.60
2023-10-30T16:13:50.044Z,14.40
2023-10-30T16:16:18.264Z,14.40
2023-10-30T16:21:18.323Z,14.30
2023-10-30T16:23:46.607Z,14.30
2023-10-30T16:26:14.696Z,14.20
2023-10-30T16:28:42.715Z,14.20
2023-10-30T16:31:10.727Z,14.10
2023-10-30T16:33:39.124Z,14.10
2023-10-30T16:36:08.565Z,14.00
2023-10-30T16:38:36.707Z,14.00
2023-10-30T16:41:05.005Z,13.90
2023-10-30T16:43:33.000Z,13.84
2023-10-30T16:46:01.092Z,13.80
2023-10-30T16:48:29.118Z,13.70
2023-10-30T16:50:57.215Z,13.70
2023-10-30T16:53:25.380Z,13.60
2023-10-30T16:55:53.356Z,13.60
2023-10-30T16:58:21.435Z,13.60
2023-10-30T17:00:51.856Z,13.56
2023-10-30T17:03:20.872Z,13.54
2023-10-30T17:05:49.198Z,13.50
2023-10-30T17:08:18.328Z,13.54
2023-10-30T17:10:48.661Z,13.52
2023-10-30T17:13:16.897Z,13.50
2023-10-30T17:15:45.126Z,13.60
2023-10-30T17:18:15.061Z,13.60
2023-10-30T17:20:43.090Z,13.56
2023-10-30T17:23:11.392Z,13.50
2023-10-30T17:25:39.598Z,13.52
2023-10-30T17:28:07.735Z,13.50
2023-10-30T17:30:35.931Z,13.50
2023-10-30T17:33:04.249Z,13.50
2023-10-30T17:35:32.596Z,13.50
2023-10-30T17:38:00.643Z,13.50
2023-10-30T17:40:28.965Z,13.50
2023-10-30T17:42:57.351Z,13.44
2023-10-30T17:45:28.104Z,13.42
2023-10-30T17:47:56.123Z,13.40
2023-10-30T17:50:24.400Z,13.40
2023-10-30T17:52:52.988Z,13.40
2023-10-30T17:55:21.438Z,13.38
2023-10-30T17:57:49.913Z,13.30
2023-10-30T18:00:18.636Z,13.30
2023-10-30T18:02:46.800Z,13.30
2023-10-30T18:05:15.115Z,13.30
2023-10-30T18:07:43.244Z,13.30
2023-10-30T18:10:11.696Z,13.30
2023-10-30T18:12:41.672Z,13.30
2023-10-30T18:15:10.043Z,13.30
2023-10-30T18:17:38.752Z,13.30
2023-10-30T18:20:08.254Z,13.20
2023-10-30T18:22:37.300Z,13.20
2023-10-30T18:25:06.921Z,13.20
2023-10-30T18:27:35.032Z,13.10
2023-10-30T18:30:03.918Z,13.10
2023-10-30T18:32:32.883Z,13.10
2023-10-30T18:35:01.086Z,13.10
2023-10-30T18:37:30.866Z,13.10
2023-10-30T18:39:59.411Z,13.10
2023-10-30T18:42:32.717Z,13.10
2023-10-30T18:45:02.843Z,13.10
2023-10-30T18:47:31.316Z,13.08
2023-10-30T18:49:59.607Z,13.10
2023-10-30T18:52:27.768Z,13.10
2023-10-30T18:54:56.446Z,13.10
2023-10-30T18:57:24.577Z,13.10
2023-10-30T18:59:52.663Z,13.10
2023-10-30T19:02:20.607Z,13.10
2023-10-30T19:04:48.703Z,13.10
2023-10-30T19:07:16.770Z,13.10
2023-10-30T19:09:44.737Z,13.20
2023-10-30T19:12:14.670Z,13.20
2023-10-30T19:14:42.966Z,13.20
2023-10-30T19:17:10.884Z,13.20
2023-10-30T19:19:38.889Z,13.20
2023-10-30T19:22:07.141Z,13.20
2023-10-30T19:24:35.148Z,13.20
2023-10-30T19:27:03.843Z,13.20
2023-10-30T19:29:31.879Z,13.28
2023-10-30T19:31:59.985Z,13.30
2023-10-30T19:34:28.171Z,13.30
2023-10-30T19:36:56.301Z,13.20
2023-10-30T19:39:25.007Z,13.20
2023-10-30T19:41:52.994Z,13.20
2023-10-30T19:44:21.626Z,13.20
2023-10-30T19:46:49.908Z,13.20
2023-10-30T19:49:18.220Z,13.20
2023-10-30T19:51:52.809Z,13.20
2023-10-30T19:54:26.774Z,13.20
2023-10-30T19:56:54.864Z,13.20
2023-10-30T19:59:22.864Z,13.20
2023-10-30T20:01:51.312Z,13.20
2023-10-30T20:04:19.538Z,13.20
2023-10-30T20:06:47.571Z,13.20
2023-10-30T20:09:17.571Z,13.20
2023-10-30T20:11:46.297Z,13.20
2023-10-30T20:14:14.666Z,13.20
2023-10-30T20:16:43.277Z,13.20
2023-10-30T20:19:11.902Z,13.20
2023-10-30T20:21:43.335Z,13.20
2023-10-30T20:24:11.631Z,13.20
2023-10-30T20:26:39.664Z,13.20
2023-10-30T20:29:09.992Z,13.20
2023-10-30T20:31:38.935Z,13.20
2023-10-30T20:34:07.248Z,13.28
2023-10-30T20:36:36.850Z,13.30
2023-10-30T20:39:05.368Z,13.30
2023-10-30T20:41:33.806Z,13.30
2023-10-30T20:44:02.225Z,13.32
2023-10-30T20:46:30.343Z,13.30
2023-10-30T20:48:59.106Z,13.36
2023-10-30T20:51:27.138Z,13.34
2023-10-30T20:53:55.176Z,13.30
2023-10-30T20:56:25.369Z,13.32
2023-10-30T20:58:54.963Z,13.30
2023-10-30T21:01:23.122Z,13.30
2023-10-30T21:03:52.535Z,13.30
2023-10-30T21:06:22.105Z,13.30
2023-10-30T21:08:50.233Z,13.32
2023-10-30T21:11:18.204Z,13.34
2023-10-30T21:13:46.290Z,13.30
2023-10-30T21:16:14.418Z,13.30
2023-10-30T21:18:44.359Z,13.30
2023-10-30T21:21:12.398Z,13.30
2023-10-30T21:23:40.465Z,13.28
2023-10-30T21:26:08.564Z,13.30
2023-10-30T21:28:36.566Z,13.28
2023-10-30T21:31:04.665Z,13.24
2023-10-30T21:33:32.786Z,13.20
2023-10-30T21:36:00.746Z,13.30
2023-10-30T21:38:28.772Z,13.30
2023-10-30T21:40:56.821Z,13.30
2023-10-30T21:43:24.945Z,13.22
2023-10-30T21:45:53.054Z,13.20
2023-10-30T21:48:21.666Z,13.20
2023-10-30T21:50:49.771Z,13.28
2023-10-30T21:53:17.876Z,13.20
2023-10-30T21:55:45.845Z,13.22
2023-10-30T21:58:13.866Z,13.20
2023-10-30T22:00:42.190Z,13.20
2023-10-30T22:03:10.435Z,13.20
2023-10-30T22:05:38.595Z,13.14
2023-10-30T22:08:07.612Z,13.10
2023-10-30T22:10:37.150Z,13.10
2023-10-30T22:13:05.422Z,13.02
2023-10-30T22:15:33.496Z,13.02
2023-10-30T22:18:01.561Z,13.06
2023-10-30T22:20:29.827Z,13.00
2023-10-30T22:22:57.911Z,13.00
2023-10-30T22:25:25.986Z,13.00
2023-10-30T22:27:54.119Z,13.00
2023-10-30T22:30:23.281Z,13.00
2023-10-30T22:32:51.510Z,13.00
2023-10-30T22:35:19.984Z,13.00
2023-10-30T22:37:47.933Z,13.00
2023-10-30T22:40:15.911Z,13.00
2023-10-30T22:42:43.929Z,13.00
2023-10-30T22:45:12.057Z,13.00
2023-10-30T22:47:40.137Z,13.00
2023-10-30T22:50:09.101Z,13.00
2023-10-30T22:52:37.122Z,13.00
2023-10-30T22:55:06.629Z,13.00
2023-10-30T22:57:34.583Z,12.92
2023-10-30T23:00:05.135Z,12.90
2023-10-30T23:02:33.195Z,12.90
2023-10-30T23:05:01.556Z,12.94
2023-10-30T23:07:29.795Z,13.00
2023-10-30T23:09:57.771Z,13.00
2023-10-30T23:12:25.856Z,13.00
2023-10-30T23:14:53.853Z,13.00
2023-10-30T23:17:22.460Z,13.00
2023-10-30T23:19:50.641Z,13.00
2023-10-30T23:22:18.675Z,13.00
2023-10-30T23:24:46.849Z,13.00
2023-10-30T23:27:15.938Z,13.00
2023-10-30T23:29:44.437Z,13.00
2023-10-30T23:32:12.422Z,13.04
2023-10-30T23:34:40.367Z,13.10
2023-10-30T23:37:08.377Z,13.10
2023-10-30T23:39:37.137Z,13.10
2023-10-30T23:42:05.694Z,13.10
2023-10-30T23:44:33.745Z,13.10
2023-10-30T23:47:01.791Z,13.14
2023-10-30T23:49:29.946Z,13.14
2023-10-30T23:51:58.226Z,13.18
2023-10-30T23:54:30.895Z,13.14
2023-10-30T23:57:01.905Z,13.20
2023-10-30T23:59:30.285Z,13.20
